Time;durP1;ratioP1;P1;durP2;ratioP2;P2;SDS_P1;SDS_P2;PMS_P1;PMS_P2;Temp;Humidity;BMP_temperature;BMP_pressure;BME280_temperature;BME280_humidity;BME280_pressure;Samples;Min_cycle;Max_cycle;Signal;HPM_P1;HPM_P2
2022/03/13 00:00:35;;;;;;;;;;;21.60;30.10;;;;;;5056393;28;19936;-58
2022/03/13 00:03:01;;;;;;;;;;;21.60;30.10;;;;;;5052349;28;20241;-59
2022/03/13 00:05:27;;;;;;;;;;;21.60;30.10;;;;;;5055452;28;19919;-60
2022/03/13 00:07:56;;;;;;;;;;;21.60;30.10;;;;;;5050868;28;19944;-60
2022/03/13 00:10:27;;;;;;;;;;;21.60;30.10;;;;;;5055166;28;19947;-59
2022/03/13 00:12:53;;;;;;;;;;;21.60;30.10;;;;;;5054117;28;19908;-59
2022/03/13 00:15:22;;;;;;;;;;;21.60;30.10;;;;;;5055524;28;19913;-58
2022/03/13 00:17:49;;;;;;;;;;;21.60;30.20;;;;;;5054811;28;19920;-59
2022/03/13 00:20:14;;;;;;;;;;;21.60;30.10;;;;;;5053858;28;19936;-59
2022/03/13 00:22:41;;;;;;;;;;;21.50;30.10;;;;;;5055172;28;20328;-58
2022/03/13 00:25:08;;;;;;;;;;;21.50;30.10;;;;;;5053308;28;20014;-58
2022/03/13 00:27:34;;;;;;;;;;;21.60;30.20;;;;;;5053781;28;19924;-59
2022/03/13 00:30:02;;;;;;;;;;;21.50;30.00;;;;;;5035073;28;19920;-60
2022/03/13 00:32:28;;;;;;;;;;;21.50;30.00;;;;;;5052909;28;19970;-57
2022/03/13 00:34:54;;;;;;;;;;;21.50;30.00;;;;;;5055368;28;19924;-57
2022/03/13 00:37:19;;;;;;;;;;;21.50;30.00;;;;;;5053707;28;19920;-58
2022/03/13 00:39:47;;;;;;;;;;;21.50;30.00;;;;;;5054240;28;19924;-60
2022/03/13 00:42:13;;;;;;;;;;;21.50;30.00;;;;;;5054489;28;19939;-56
2022/03/13 00:44:39;;;;;;;;;;;21.50;30.00;;;;;;5055192;28;19912;-59
2022/03/13 00:47:05;;;;;;;;;;;21.50;30.00;;;;;;5050627;28;20008;-58
2022/03/13 00:49:32;;;;;;;;;;;21.50;30.00;;;;;;5054099;28;20331;-59
2022/03/13 00:51:59;;;;;;;;;;;21.50;30.00;;;;;;5054145;28;19909;-59
2022/03/13 00:54:24;;;;;;;;;;;21.50;30.00;;;;;;5054917;28;19921;-56
2022/03/13 00:56:50;;;;;;;;;;;21.50;30.00;;;;;;5054472;28;19920;-59
2022/03/13 00:59:16;;;;;;;;;;;21.50;30.00;;;;;;5054793;28;19974;-60
2022/03/13 01:01:42;;;;;;;;;;;21.50;30.00;;;;;;5052972;28;20282;-58
2022/03/13 01:04:07;;;;;;;;;;;21.50;30.00;;;;;;5054946;28;19909;-57
2022/03/13 01:06:33;;;;;;;;;;;21.50;30.00;;;;;;5036048;28;19908;-59
2022/03/13 01:08:59;;;;;;;;;;;21.50;30.00;;;;;;5050406;28;20312;-59
2022/03/13 01:11:25;;;;;;;;;;;21.40;30.00;;;;;;5051841;28;19908;-60
2022/03/13 01:13:50;;;;;;;;;;;21.40;30.00;;;;;;5036362;28;19999;-61
2022/03/13 01:16:20;;;;;;;;;;;21.40;30.00;;;;;;5036716;28;20344;-59
2022/03/13 01:18:50;;;;;;;;;;;21.40;30.00;;;;;;5054094;28;19943;-58
2022/03/13 01:21:16;;;;;;;;;;;21.40;30.00;;;;;;5053834;28;19909;-59
2022/03/13 01:23:54;;;;;;;;;;;21.40;30.00;;;;;;5054637;28;20235;-58
2022/03/13 01:26:22;;;;;;;;;;;21.40;30.00;;;;;;5052934;28;19947;-59
2022/03/13 01:28:51;;;;;;;;;;;21.40;30.00;;;;;;5053167;28;19909;-59
2022/03/13 01:31:19;;;;;;;;;;;21.40;30.00;;;;;;5052604;28;19919;-59
2022/03/13 01:33:45;;;;;;;;;;;21.40;30.00;;;;;;5054664;28;19917;-60
2022/03/13 01:36:12;;;;;;;;;;;21.40;30.00;;;;;;5051349;28;19920;-59
2022/03/13 01:38:37;;;;;;;;;;;21.40;30.00;;;;;;5052847;28;19974;-58
2022/03/13 01:41:03;;;;;;;;;;;21.40;30.00;;;;;;5053116;28;20324;-60
2022/03/13 01:43:31;;;;;;;;;;;21.40;30.00;;;;;;5053938;28;20295;-59
2022/03/13 01:46:00;;;;;;;;;;;21.40;30.00;;;;;;5053250;28;19921;-59
2022/03/13 01:48:26;;;;;;;;;;;21.40;30.00;;;;;;5053856;28;21838;-61
2022/03/13 01:50:52;;;;;;;;;;;21.40;30.00;;;;;;5051017;28;20263;-55
2022/03/13 01:53:21;;;;;;;;;;;21.40;30.00;;;;;;5054434;28;19916;-57
2022/03/13 01:55:54;;;;;;;;;;;21.30;30.00;;;;;;5053079;28;19916;-59
2022/03/13 01:58:20;;;;;;;;;;;21.30;30.00;;;;;;5052225;28;19909;-57
2022/03/13 02:00:46;;;;;;;;;;;21.40;30.00;;;;;;5052614;28;19931;-57
2022/03/13 02:03:12;;;;;;;;;;;21.30;30.00;;;;;;5052588;28;19920;-59
2022/03/13 02:05:38;;;;;;;;;;;21.40;30.00;;;;;;5051959;28;20332;-60
2022/03/13 02:08:19;;;;;;;;;;;21.30;30.00;;;;;;5053106;28;19919;-58
2022/03/13 02:10:45;;;;;;;;;;;21.40;30.00;;;;;;5051017;28;19932;-59
2022/03/13 02:13:13;;;;;;;;;;;21.40;30.00;;;;;;5053189;28;19913;-58
2022/03/13 02:15:39;;;;;;;;;;;21.40;30.00;;;;;;5052442;28;19932;-59
2022/03/13 02:18:05;;;;;;;;;;;21.40;29.90;;;;;;5053432;28;19908;-61
2022/03/13 02:20:35;;;;;;;;;;;21.40;29.90;;;;;;5051699;28;19919;-59
2022/03/13 02:23:01;;;;;;;;;;;21.50;29.90;;;;;;5053696;28;19909;-59
2022/03/13 02:25:31;;;;;;;;;;;21.50;29.90;;;;;;5051510;28;19919;-59
2022/03/13 02:27:57;;;;;;;;;;;21.50;29.90;;;;;;5050315;28;19955;-58
2022/03/13 02:30:24;;;;;;;;;;;21.50;29.90;;;;;;5053771;28;19995;-59
2022/03/13 02:32:51;;;;;;;;;;;21.50;29.90;;;;;;5053144;28;19920;-59
2022/03/13 02:35:17;;;;;;;;;;;21.50;29.90;;;;;;5053795;28;19913;-59
2022/03/13 02:37:42;;;;;;;;;;;21.50;29.90;;;;;;5050566;28;19908;-59
2022/03/13 02:40:14;;;;;;;;;;;21.50;29.90;;;;;;5053827;28;19927;-58
2022/03/13 02:42:40;;;;;;;;;;;21.50;29.90;;;;;;5052792;28;20011;-58
2022/03/13 02:45:06;;;;;;;;;;;21.50;29.90;;;;;;5054233;28;20378;-58
2022/03/13 02:47:32;;;;;;;;;;;21.50;29.90;;;;;;5034967;28;20217;-58
2022/03/13 02:49:57;;;;;;;;;;;21.50;29.80;;;;;;5053374;28;19920;-60
2022/03/13 02:52:23;;;;;;;;;;;21.50;29.80;;;;;;5049758;28;19917;-59
2022/03/13 02:54:49;;;;;;;;;;;21.50;29.90;;;;;;5035405;28;19929;-60
2022/03/13 02:57:15;;;;;;;;;;;21.50;29.90;;;;;;5049327;28;19924;-59
2022/03/13 02:59:40;;;;;;;;;;;21.50;29.90;;;;;;5052878;28;19952;-59
2022/03/13 03:02:06;;;;;;;;;;;21.60;29.90;;;;;;5052082;28;19908;-59
2022/03/13 03:04:32;;;;;;;;;;;21.60;29.90;;;;;;5053416;28;19921;-59
2022/03/13 03:06:59;;;;;;;;;;;21.50;29.90;;;;;;5049618;28;19939;-60
2022/03/13 03:09:26;;;;;;;;;;;21.50;29.90;;;;;;5052705;28;20335;-60
2022/03/13 03:11:52;;;;;;;;;;;21.60;29.90;;;;;;5052947;28;19919;-61
2022/03/13 03:14:19;;;;;;;;;;;21.60;29.90;;;;;;5053022;28;20247;-60
2022/03/13 03:16:44;;;;;;;;;;;21.50;29.90;;;;;;5050437;28;19926;-60
2022/03/13 03:19:10;;;;;;;;;;;21.60;29.90;;;;;;5053446;28;19908;-59
2022/03/13 03:21:38;;;;;;;;;;;21.60;29.90;;;;;;5052322;28;20358;-59
2022/03/13 03:24:10;;;;;;;;;;;21.60;29.90;;;;;;5053076;28;19966;-59
2022/03/13 03:26:36;;;;;;;;;;;21.50;29.90;;;;;;5051989;28;20336;-60
2022/03/13 03:29:03;;;;;;;;;;;21.50;29.90;;;;;;5052231;28;20273;-59
2022/03/13 03:31:29;;;;;;;;;;;21.50;29.80;;;;;;5050143;28;19932;-59
2022/03/13 03:33:54;;;;;;;;;;;21.60;29.90;;;;;;5052735;28;19917;-58
2022/03/13 03:36:20;;;;;;;;;;;21.50;29.80;;;;;;5048928;28;20059;-59
2022/03/13 03:38:46;;;;;;;;;;;21.60;29.90;;;;;;5053234;28;20351;-56
2022/03/13 03:41:12;;;;;;;;;;;21.60;29.90;;;;;;5055715;28;19917;-59
2022/03/13 03:43:39;;;;;;;;;;;21.50;29.80;;;;;;5056349;28;19916;-59
2022/03/13 03:46:05;;;;;;;;;;;21.50;29.80;;;;;;5055867;28;20317;-57
2022/03/13 03:48:31;;;;;;;;;;;21.60;29.90;;;;;;5056399;28;19999;-59
2022/03/13 03:50:56;;;;;;;;;;;21.50;29.80;;;;;;5037309;28;20350;-58
2022/03/13 03:53:22;;;;;;;;;;;21.60;29.90;;;;;;5056341;28;20335;-61
2022/03/13 03:55:47;;;;;;;;;;;21.60;29.90;;;;;;5055104;28;20319;-60
2022/03/13 03:58:13;;;;;;;;;;;21.60;29.90;;;;;;5056320;28;20324;-59
2022/03/13 04:00:39;;;;;;;;;;;21.60;29.80;;;;;;5037461;28;20011;-58
2022/03/13 04:03:05;;;;;;;;;;;21.60;29.80;;;;;;5037485;28;20287;-60
2022/03/13 04:05:32;;;;;;;;;;;21.60;29.80;;;;;;5055170;28;19909;-59
2022/03/13 04:07:57;;;;;;;;;;;21.50;29.80;;;;;;5024994;28;19963;-59
2022/03/13 04:10:23;;;;;;;;;;;21.50;29.80;;;;;;5055359;28;19909;-57
2022/03/13 04:12:48;;;;;;;;;;;21.60;29.80;;;;;;5055537;28;19909;-57
2022/03/13 04:15:14;;;;;;;;;;;21.50;29.80;;;;;;5055461;28;19928;-58
2022/03/13 04:17:43;;;;;;;;;;;21.60;29.80;;;;;;5054196;28;19944;-59
2022/03/13 04:20:10;;;;;;;;;;;21.60;29.80;;;;;;5055813;28;20322;-57
2022/03/13 04:22:35;;;;;;;;;;;21.60;29.80;;;;;;5055160;28;19940;-60
2022/03/13 04:25:02;;;;;;;;;;;21.60;29.80;;;;;;5055456;28;19959;-60
2022/03/13 04:27:27;;;;;;;;;;;21.50;29.70;;;;;;5054585;28;19935;-60
2022/03/13 04:29:53;;;;;;;;;;;21.60;29.80;;;;;;5055592;28;19909;-59
2022/03/13 04:32:22;;;;;;;;;;;21.50;29.70;;;;;;5035928;28;20233;-58
2022/03/13 04:34:48;;;;;;;;;;;21.50;29.70;;;;;;5053524;28;19918;-59
2022/03/13 04:37:16;;;;;;;;;;;21.50;29.70;;;;;;5050848;28;20320;-58
2022/03/13 04:39:42;;;;;;;;;;;21.50;29.60;;;;;;5037972;28;19937;-60
2022/03/13 04:42:08;;;;;;;;;;;21.50;29.70;;;;;;5052611;28;19967;-58
2022/03/13 04:44:34;;;;;;;;;;;21.50;29.60;;;;;;5055426;28;19908;-58
2022/03/13 04:47:00;;;;;;;;;;;21.50;29.60;;;;;;5053705;28;19913;-60
2022/03/13 04:49:26;;;;;;;;;;;21.50;29.60;;;;;;5055220;28;19986;-60
2022/03/13 04:51:51;;;;;;;;;;;21.50;29.60;;;;;;5053943;28;19963;-59
2022/03/13 04:54:18;;;;;;;;;;;21.50;29.60;;;;;;5054890;28;19928;-60
2022/03/13 04:56:44;;;;;;;;;;;21.50;29.60;;;;;;5032818;28;20382;-60
2022/03/13 04:59:10;;;;;;;;;;;21.50;29.60;;;;;;5055421;28;19908;-58
2022/03/13 05:01:36;;;;;;;;;;;21.50;29.60;;;;;;5053081;28;19939;-59
2022/03/13 05:04:02;;;;;;;;;;;21.50;29.50;;;;;;5054330;28;19928;-59
2022/03/13 05:06:28;;;;;;;;;;;21.50;29.50;;;;;;5051873;28;19909;-60
2022/03/13 05:08:54;;;;;;;;;;;21.50;29.50;;;;;;5054860;28;19924;-58
2022/03/13 05:11:20;;;;;;;;;;;21.50;29.50;;;;;;5054426;28;19917;-59
2022/03/13 05:13:46;;;;;;;;;;;21.50;29.50;;;;;;5054929;28;19933;-59
2022/03/13 05:16:12;;;;;;;;;;;21.50;29.40;;;;;;5053992;28;19909;-60
2022/03/13 05:18:37;;;;;;;;;;;21.50;29.50;;;;;;5054636;28;19986;-59
2022/03/13 05:21:03;;;;;;;;;;;21.50;29.40;;;;;;5052757;28;19920;-59
2022/03/13 05:23:29;;;;;;;;;;;21.50;29.40;;;;;;5054678;28;19913;-60
2022/03/13 05:25:55;;;;;;;;;;;21.50;29.40;;;;;;5052998;28;20331;-61
2022/03/13 05:28:21;;;;;;;;;;;21.50;29.40;;;;;;5054088;28;19938;-60
2022/03/13 05:30:46;;;;;;;;;;;21.50;29.30;;;;;;5053638;28;19943;-59
2022/03/13 05:33:12;;;;;;;;;;;21.50;29.30;;;;;;5054616;28;19992;-59
2022/03/13 05:35:40;;;;;;;;;;;21.50;29.30;;;;;;5052113;28;19921;-58
2022/03/13 05:38:06;;;;;;;;;;;21.50;29.30;;;;;;5054352;28;20335;-59
2022/03/13 05:40:34;;;;;;;;;;;21.40;29.20;;;;;;5053617;28;20351;-60
2022/03/13 05:43:00;;;;;;;;;;;21.50;29.30;;;;;;5052980;28;19919;-60
2022/03/13 05:45:27;;;;;;;;;;;21.40;29.20;;;;;;5054196;28;19921;-61
2022/03/13 05:47:59;;;;;;;;;;;21.40;29.20;;;;;;5054350;28;20007;-60
2022/03/13 05:50:25;;;;;;;;;;;21.50;29.20;;;;;;5050357;28;19917;-62
2022/03/13 05:52:53;;;;;;;;;;;21.40;29.20;;;;;;5053655;28;19909;-61
2022/03/13 05:55:19;;;;;;;;;;;21.40;29.10;;;;;;5052170;28;19939;-61
2022/03/13 05:57:45;;;;;;;;;;;21.50;29.20;;;;;;5053893;28;19909;-59
2022/03/13 06:00:12;;;;;;;;;;;21.50;29.10;;;;;;5053071;28;20007;-59
2022/03/13 06:02:47;;;;;;;;;;;21.50;29.10;;;;;;5051267;28;19999;-59
2022/03/13 06:05:13;;;;;;;;;;;21.40;29.00;;;;;;5052296;28;19935;-60
2022/03/13 06:07:40;;;;;;;;;;;21.50;29.10;;;;;;5053223;28;19908;-61
2022/03/13 06:10:06;;;;;;;;;;;21.40;29.00;;;;;;5051950;28;20438;-60
2022/03/13 06:12:33;;;;;;;;;;;21.40;29.00;;;;;;5053379;28;19908;-60
2022/03/13 06:15:00;;;;;;;;;;;21.40;29.00;;;;;;5050857;28;19929;-60
2022/03/13 06:17:25;;;;;;;;;;;21.40;28.90;;;;;;5053243;28;19915;-59
2022/03/13 06:19:55;;;;;;;;;;;21.40;28.90;;;;;;5052293;28;20244;-60
2022/03/13 06:22:25;;;;;;;;;;;21.40;28.90;;;;;;5052969;28;19933;-60
2022/03/13 06:24:51;;;;;;;;;;;21.40;28.90;;;;;;5053240;28;19912;-60
2022/03/13 06:27:19;;;;;;;;;;;21.40;28.90;;;;;;5035818;28;20332;-60
2022/03/13 06:29:45;;;;;;;;;;;21.40;28.90;;;;;;5053194;28;19952;-59
2022/03/13 06:32:10;;;;;;;;;;;21.40;28.90;;;;;;5053449;28;19909;-59
2022/03/13 06:34:37;;;;;;;;;;;21.40;28.90;;;;;;5035610;28;19917;-60
2022/03/13 06:37:05;;;;;;;;;;;21.40;28.90;;;;;;5052620;28;19920;-60
2022/03/13 06:39:31;;;;;;;;;;;21.40;28.80;;;;;;5053580;28;19909;-59
2022/03/13 06:41:56;;;;;;;;;;;21.40;28.80;;;;;;5052588;28;19913;-58
2022/03/13 06:44:23;;;;;;;;;;;21.40;28.80;;;;;;5053044;28;19919;-60
2022/03/13 06:46:49;;;;;;;;;;;21.40;28.80;;;;;;5052171;28;19970;-58
2022/03/13 06:49:15;;;;;;;;;;;21.40;28.70;;;;;;5051313;28;19912;-58
2022/03/13 06:51:40;;;;;;;;;;;21.40;28.70;;;;;;5051892;28;20308;-59
2022/03/13 06:54:06;;;;;;;;;;;21.40;28.70;;;;;;5052947;28;19929;-51
2022/03/13 06:56:33;;;;;;;;;;;21.40;28.70;;;;;;5050413;28;19909;-60
2022/03/13 06:59:03;;;;;;;;;;;21.40;28.70;;;;;;5053031;28;19962;-58
2022/03/13 07:01:32;;;;;;;;;;;21.40;28.60;;;;;;5052252;28;19921;-60
2022/03/13 07:03:57;;;;;;;;;;;21.40;28.60;;;;;;5051036;28;19929;-60
2022/03/13 07:06:23;;;;;;;;;;;21.40;28.60;;;;;;5052227;28;19966;-60
2022/03/13 07:08:49;;;;;;;;;;;21.40;28.60;;;;;;5052503;28;20374;-59
2022/03/13 07:11:17;;;;;;;;;;;21.40;28.60;;;;;;5052616;28;20504;-59
2022/03/13 07:13:47;;;;;;;;;;;21.40;28.60;;;;;;5055136;28;19916;-59
2022/03/13 07:16:15;;;;;;;;;;;21.40;28.60;;;;;;5056060;28;19919;-60
2022/03/13 07:18:42;;;;;;;;;;;21.40;28.60;;;;;;5038237;28;19909;-61
2022/03/13 07:21:13;;;;;;;;;;;21.40;28.50;;;;;;5049256;28;19936;-59
2022/03/13 07:23:39;;;;;;;;;;;21.40;28.60;;;;;;5053739;28;19916;-58
2022/03/13 07:26:07;;;;;;;;;;;21.40;28.50;;;;;;5052787;28;20323;-57
2022/03/13 07:28:36;;;;;;;;;;;21.40;28.50;;;;;;5055733;28;20006;-57
2022/03/13 07:31:02;;;;;;;;;;;21.40;28.50;;;;;;5056346;28;20343;-56
2022/03/13 07:33:27;;;;;;;;;;;21.40;28.40;;;;;;5055892;28;20049;-57
2022/03/13 07:35:55;;;;;;;;;;;21.40;28.40;;;;;;5055404;28;20328;-59
2022/03/13 07:38:21;;;;;;;;;;;21.40;28.40;;;;;;5054176;28;19909;-56
2022/03/13 07:40:47;;;;;;;;;;;21.40;28.30;;;;;;5056473;28;19920;-58
2022/03/13 07:43:13;;;;;;;;;;;21.40;28.30;;;;;;5054154;28;20347;-57
2022/03/13 07:45:39;;;;;;;;;;;21.40;28.30;;;;;;5056042;28;20004;-58
2022/03/13 07:48:04;;;;;;;;;;;21.40;28.30;;;;;;5054626;28;19986;-59
2022/03/13 07:50:30;;;;;;;;;;;21.40;28.20;;;;;;5050797;28;19909;-53
2022/03/13 07:53:03;;;;;;;;;;;21.40;28.20;;;;;;5050787;28;19924;-59
2022/03/13 07:55:34;;;;;;;;;;;21.40;28.20;;;;;;5052820;28;19924;-56
2022/03/13 07:58:01;;;;;;;;;;;21.40;28.30;;;;;;5052243;28;20008;-60
2022/03/13 08:00:27;;;;;;;;;;;21.40;28.20;;;;;;5047636;28;19913;-58
2022/03/13 08:02:54;;;;;;;;;;;21.50;28.20;;;;;;5043729;28;19909;-60
2022/03/13 08:05:23;;;;;;;;;;;21.50;28.10;;;;;;5042709;28;20316;-59
2022/03/13 08:07:49;;;;;;;;;;;21.50;28.00;;;;;;5048442;28;19912;-61
2022/03/13 08:10:20;;;;;;;;;;;21.60;28.00;;;;;;5050106;28;19931;-61
2022/03/13 08:12:48;;;;;;;;;;;21.60;27.90;;;;;;5049050;28;20279;-59
2022/03/13 08:15:13;;;;;;;;;;;21.70;27.80;;;;;;5045867;28;20024;-59
2022/03/13 08:17:39;;;;;;;;;;;21.80;27.80;;;;;;5044381;28;20003;-59
2022/03/13 08:20:05;;;;;;;;;;;21.90;27.70;;;;;;5042188;28;20299;-60
2022/03/13 08:22:31;;;;;;;;;;;21.90;28.10;;;;;;5042630;28;19908;-60
2022/03/13 08:24:57;;;;;;;;;;;22.00;27.60;;;;;;5044730;28;19987;-60
2022/03/13 08:27:22;;;;;;;;;;;22.00;27.50;;;;;;5048505;28;19967;-62
2022/03/13 08:29:49;;;;;;;;;;;22.10;27.50;;;;;;5046947;28;20386;-54
2022/03/13 08:32:16;;;;;;;;;;;22.10;27.40;;;;;;5043774;28;19940;-59
2022/03/13 08:34:45;;;;;;;;;;;22.20;27.40;;;;;;5046966;28;19956;-55
2022/03/13 08:37:12;;;;;;;;;;;22.20;27.40;;;;;;5044207;28;19921;-53
2022/03/13 08:39:37;;;;;;;;;;;22.30;27.40;;;;;;5044142;28;19908;-57
2022/03/13 08:42:04;;;;;;;;;;;22.30;27.30;;;;;;5044716;28;19919;-55
2022/03/13 08:44:29;;;;;;;;;;;22.40;27.30;;;;;;5047919;28;20224;-54
2022/03/13 08:46:55;;;;;;;;;;;22.40;27.30;;;;;;5043970;28;20046;-55
2022/03/13 08:49:21;;;;;;;;;;;22.40;27.20;;;;;;5045891;28;19920;-57
2022/03/13 08:51:46;;;;;;;;;;;22.50;27.20;;;;;;5043226;28;20015;-60
2022/03/13 08:54:16;;;;;;;;;;;22.50;27.20;;;;;;5050621;28;19927;-60
2022/03/13 08:56:42;;;;;;;;;;;22.60;27.10;;;;;;5046360;28;19995;-59
2022/03/13 08:59:09;;;;;;;;;;;22.60;27.10;;;;;;5046080;28;19908;-59
2022/03/13 09:01:36;;;;;;;;;;;22.60;27.00;;;;;;5043487;28;19940;-56
2022/03/13 09:04:02;;;;;;;;;;;22.60;27.00;;;;;;5044012;28;19920;-57
2022/03/13 09:06:27;;;;;;;;;;;22.70;26.90;;;;;;5044216;28;20024;-58
2022/03/13 09:08:53;;;;;;;;;;;22.70;26.90;;;;;;5050940;28;19920;-61
2022/03/13 09:11:19;;;;;;;;;;;22.70;26.80;;;;;;5052421;28;19919;-60
2022/03/13 09:13:45;;;;;;;;;;;22.70;26.80;;;;;;5049416;28;19924;-61
2022/03/13 09:16:11;;;;;;;;;;;22.80;26.80;;;;;;5051685;28;19909;-61
2022/03/13 09:18:38;;;;;;;;;;;22.80;26.80;;;;;;5049861;28;19917;-61
2022/03/13 09:21:04;;;;;;;;;;;22.80;26.80;;;;;;5044587;28;19959;-60
2022/03/13 09:23:30;;;;;;;;;;;22.90;26.80;;;;;;5050582;28;19909;-60
2022/03/13 09:25:57;;;;;;;;;;;22.90;26.70;;;;;;5052400;28;20312;-60
2022/03/13 09:28:24;;;;;;;;;;;22.90;26.70;;;;;;5049985;28;19988;-60
2022/03/13 09:30:50;;;;;;;;;;;22.90;26.70;;;;;;5043940;28;19964;-59
2022/03/13 09:33:16;;;;;;;;;;;22.90;26.60;;;;;;5050313;28;19979;-60
2022/03/13 09:35:42;;;;;;;;;;;22.90;26.60;;;;;;5042460;28;20343;-62
2022/03/13 09:38:09;;;;;;;;;;;22.90;26.60;;;;;;5041070;28;19908;-62
2022/03/13 09:40:40;;;;;;;;;;;23.00;26.60;;;;;;5041993;28;19940;-61
2022/03/13 09:43:06;;;;;;;;;;;23.00;26.50;;;;;;5047027;28;19908;-56
2022/03/13 09:45:33;;;;;;;;;;;23.00;26.60;;;;;;5046378;28;19975;-58
2022/03/13 09:48:01;;;;;;;;;;;23.00;26.50;;;;;;5046541;28;19927;-50
2022/03/13 09:50:28;;;;;;;;;;;23.00;26.60;;;;;;5043301;28;19908;-58
2022/03/13 09:52:54;;;;;;;;;;;23.00;26.90;;;;;;5045572;28;20012;-57
2022/03/13 09:55:20;;;;;;;;;;;23.00;27.40;;;;;;5043276;28;20382;-61
2022/03/13 09:57:48;;;;;;;;;;;23.00;28.00;;;;;;5042710;28;19966;-63
2022/03/13 10:00:16;;;;;;;;;;;23.00;28.50;;;;;;5027490;28;19919;-61
2022/03/13 10:02:43;;;;;;;;;;;23.00;29.10;;;;;;5043715;28;19909;-59
2022/03/13 10:05:10;;;;;;;;;;;23.10;29.70;;;;;;5041826;28;19913;-57
2022/03/13 10:07:57;;;;;;;;;;;23.10;30.00;;;;;;5042861;28;19924;-58
2022/03/13 10:10:23;;;;;;;;;;;23.10;30.50;;;;;;5043383;28;19928;-60
2022/03/13 10:12:49;;;;;;;;;;;23.20;31.60;;;;;;5043076;28;20325;-58
2022/03/13 10:15:15;;;;;;;;;;;23.20;31.00;;;;;;5045597;28;19917;-56
2022/03/13 10:17:41;;;;;;;;;;;23.20;31.00;;;;;;5046229;28;19909;-57
2022/03/13 10:20:20;;;;;;;;;;;23.20;30.90;;;;;;5044754;28;19920;-60
2022/03/13 10:22:47;;;;;;;;;;;23.20;30.90;;;;;;5042857;28;19935;-58
2022/03/13 10:25:18;;;;;;;;;;;23.20;31.10;;;;;;5044299;28;20281;-55
2022/03/13 10:27:44;;;;;;;;;;;23.30;31.30;;;;;;5047468;28;19951;-58
2022/03/13 10:30:11;;;;;;;;;;;23.30;31.20;;;;;;5031467;28;19917;-53
2022/03/13 10:32:40;;;;;;;;;;;23.30;31.10;;;;;;5042340;28;19959;-60
2022/03/13 10:35:06;;;;;;;;;;;23.20;30.90;;;;;;5030215;28;20344;-56
2022/03/13 10:37:37;;;;;;;;;;;23.20;31.00;;;;;;5043647;28;19962;-59
2022/03/13 10:40:09;;;;;;;;;;;23.20;31.10;;;;;;5046069;28;19921;-55
2022/03/13 10:42:45;;;;;;;;;;;23.30;31.70;;;;;;5045227;28;20224;-61
2022/03/13 10:45:15;;;;;;;;;;;23.30;32.30;;;;;;5041297;28;19921;-61
2022/03/13 10:47:42;;;;;;;;;;;23.30;32.90;;;;;;5043453;28;21197;-61
2022/03/13 10:50:09;;;;;;;;;;;23.40;33.10;;;;;;5048466;28;19959;-59
2022/03/13 10:52:41;;;;;;;;;;;23.40;33.00;;;;;;5042187;28;19924;-59
2022/03/13 10:55:18;;;;;;;;;;;23.40;32.70;;;;;;5046953;28;19917;-60
2022/03/13 10:57:54;;;;;;;;;;;23.40;32.50;;;;;;5049838;28;19913;-58
2022/03/13 11:00:21;;;;;;;;;;;23.30;32.10;;;;;;5027898;28;19932;-59
2022/03/13 11:02:48;;;;;;;;;;;23.30;31.80;;;;;;5049522;28;19916;-48
2022/03/13 11:05:14;;;;;;;;;;;23.30;31.50;;;;;;5046851;28;20327;-56
2022/03/13 11:07:39;;;;;;;;;;;23.30;31.30;;;;;;5046125;28;19932;-63
2022/03/13 11:10:07;;;;;;;;;;;23.30;31.10;;;;;;5050088;28;19924;-54
2022/03/13 11:12:34;;;;;;;;;;;23.30;30.90;;;;;;5048253;28;19912;-60
2022/03/13 11:15:00;;;;;;;;;;;23.30;30.80;;;;;;5048015;28;19933;-60
2022/03/13 11:17:27;;;;;;;;;;;23.30;30.60;;;;;;5047261;28;19921;-62
2022/03/13 11:19:57;;;;;;;;;;;23.30;30.50;;;;;;5049302;28;19909;-61
2022/03/13 11:22:23;;;;;;;;;;;23.30;30.40;;;;;;5050294;28;19912;-61
2022/03/13 11:24:49;;;;;;;;;;;23.40;30.30;;;;;;5052121;28;20216;-60
2022/03/13 11:27:15;;;;;;;;;;;23.40;30.20;;;;;;5046223;28;19921;-60
2022/03/13 11:29:45;;;;;;;;;;;23.40;30.10;;;;;;5045074;28;19975;-60
2022/03/13 11:32:30;;;;;;;;;;;23.40;30.00;;;;;;5051490;28;19909;-58
2022/03/13 11:35:08;;;;;;;;;;;23.40;30.00;;;;;;5027566;28;19939;-56
2022/03/13 11:37:36;;;;;;;;;;;23.50;30.00;;;;;;5043645;28;19974;-57
2022/03/13 11:40:02;;;;;;;;;;;23.50;30.00;;;;;;5047437;28;19932;-60
2022/03/13 11:42:43;;;;;;;;;;;23.60;30.00;;;;;;5042341;28;19909;-49
2022/03/13 11:45:28;;;;;;;;;;;23.60;29.90;;;;;;5047749;28;19943;-51
2022/03/13 11:47:54;;;;;;;;;;;23.60;29.90;;;;;;5043125;28;19992;-57
2022/03/13 11:50:25;;;;;;;;;;;23.70;29.90;;;;;;5043023;28;20003;-54
2022/03/13 11:53:11;;;;;;;;;;;23.70;29.80;;;;;;5046161;28;20008;-57
2022/03/13 11:55:56;;;;;;;;;;;23.70;29.80;;;;;;5041459;28;19917;-61
2022/03/13 11:58:41;;;;;;;;;;;23.70;29.70;;;;;;5041545;28;19945;-55
2022/03/13 12:01:12;;;;;;;;;;;23.70;29.70;;;;;;5045149;28;19909;-61
2022/03/13 12:03:38;;;;;;;;;;;23.80;29.70;;;;;;5044957;28;19913;-61
2022/03/13 12:06:05;;;;;;;;;;;23.80;29.70;;;;;;5041963;28;19952;-61
2022/03/13 12:08:49;;;;;;;;;;;23.80;29.60;;;;;;5036867;28;19933;-61
2022/03/13 12:11:39;;;;;;;;;;;23.80;29.50;;;;;;5041185;28;19912;-60
2022/03/13 12:14:09;;;;;;;;;;;23.80;29.50;;;;;;5030444;28;20017;-60
2022/03/13 12:16:35;;;;;;;;;;;23.80;29.40;;;;;;5043918;28;19909;-60
2022/03/13 12:19:03;;;;;;;;;;;23.80;29.40;;;;;;5037037;28;19909;-62
2022/03/13 12:21:29;;;;;;;;;;;23.80;29.30;;;;;;5041228;28;19923;-61
2022/03/13 12:23:58;;;;;;;;;;;23.80;29.20;;;;;;5054766;28;20004;-60
2022/03/13 12:26:28;;;;;;;;;;;23.80;29.10;;;;;;5052663;28;19909;-60
2022/03/13 12:28:57;;;;;;;;;;;23.80;29.00;;;;;;5053664;28;19962;-61
2022/03/13 12:31:23;;;;;;;;;;;23.80;29.00;;;;;;5055666;28;19908;-59
2022/03/13 12:33:54;;;;;;;;;;;23.80;28.90;;;;;;5048166;28;19921;-53
2022/03/13 12:36:23;;;;;;;;;;;23.80;28.80;;;;;;5041651;28;19913;-47
2022/03/13 12:38:49;;;;;;;;;;;23.80;28.80;;;;;;5053434;28;19958;-51
2022/03/13 12:41:15;;;;;;;;;;;23.80;28.80;;;;;;5046593;28;19912;-48
2022/03/13 12:43:50;;;;;;;;;;;23.80;28.80;;;;;;5048785;28;19971;-51
2022/03/13 12:46:17;;;;;;;;;;;23.80;28.80;;;;;;5039384;28;19978;-53
2022/03/13 12:48:49;;;;;;;;;;;23.80;28.70;;;;;;5049133;28;19909;-58
2022/03/13 12:51:35;;;;;;;;;;;23.80;28.70;;;;;;5029651;28;19908;-51
2022/03/13 12:54:02;;;;;;;;;;;23.80;28.70;;;;;;5043519;28;19967;-57
2022/03/13 12:56:29;;;;;;;;;;;23.90;28.70;;;;;;5040957;28;19943;-53
2022/03/13 12:58:58;;;;;;;;;;;23.90;28.60;;;;;;5042771;28;19995;-57
2022/03/13 13:01:24;;;;;;;;;;;23.90;28.60;;;;;;5047029;28;20352;-53
2022/03/13 13:03:51;;;;;;;;;;;23.90;28.60;;;;;;5038188;28;19927;-56
2022/03/13 13:06:30;;;;;;;;;;;23.90;28.70;;;;;;5038357;28;19909;-56
2022/03/13 13:08:55;;;;;;;;;;;24.00;28.80;;;;;;5030846;28;20008;-58
2022/03/13 13:11:35;;;;;;;;;;;24.00;28.80;;;;;;5041488;28;20011;-53
2022/03/13 13:14:01;;;;;;;;;;;24.00;28.80;;;;;;5055966;28;19913;-63
2022/03/13 13:16:29;;;;;;;;;;;24.00;28.70;;;;;;5053775;28;21755;-63
2022/03/13 13:18:56;;;;;;;;;;;24.00;28.60;;;;;;5052274;28;20204;-61
2022/03/13 13:21:39;;;;;;;;;;;24.00;28.60;;;;;;5055238;28;19917;-60
2022/03/13 13:24:27;;;;;;;;;;;24.10;28.60;;;;;;5029946;28;19909;-61
2022/03/13 13:26:53;;;;;;;;;;;24.10;28.50;;;;;;5046997;28;19920;-60
2022/03/13 13:29:35;;;;;;;;;;;24.10;28.50;;;;;;5046406;28;20259;-60
2022/03/13 13:32:20;;;;;;;;;;;24.10;28.40;;;;;;5045762;28;19929;-60
2022/03/13 13:35:04;;;;;;;;;;;24.00;28.30;;;;;;5046364;28;19916;-60
2022/03/13 13:37:30;;;;;;;;;;;24.00;28.30;;;;;;5049590;28;19916;-60
2022/03/13 13:40:09;;;;;;;;;;;24.00;28.30;;;;;;5045011;28;20281;-54
2022/03/13 13:42:36;;;;;;;;;;;24.00;28.20;;;;;;5046030;28;20031;-61
2022/03/13 13:45:20;;;;;;;;;;;24.00;28.30;;;;;;5046858;28;19995;-61
2022/03/13 13:47:46;;;;;;;;;;;24.00;28.30;;;;;;5050845;28;20251;-61
2022/03/13 13:50:13;;;;;;;;;;;23.90;28.20;;;;;;5038451;28;19909;-60
2022/03/13 13:52:39;;;;;;;;;;;23.90;28.20;;;;;;5018804;28;19917;-62
2022/03/13 13:55:19;;;;;;;;;;;23.90;28.20;;;;;;5043267;28;19917;-61
2022/03/13 13:57:45;;;;;;;;;;;23.90;28.20;;;;;;5040528;28;19913;-61
2022/03/13 14:00:26;;;;;;;;;;;23.80;28.10;;;;;;5043241;28;19973;-61
2022/03/13 14:02:52;;;;;;;;;;;23.80;28.10;;;;;;5035065;28;19909;-61
2022/03/13 14:05:17;;;;;;;;;;;23.90;28.10;;;;;;5041166;28;20015;-61
2022/03/13 14:07:43;;;;;;;;;;;23.80;28.10;;;;;;5035674;28;20201;-62
2022/03/13 14:10:11;;;;;;;;;;;23.80;28.10;;;;;;5049674;28;20220;-61
2022/03/13 14:12:37;;;;;;;;;;;23.80;28.10;;;;;;5041552;28;20240;-61
2022/03/13 14:15:04;;;;;;;;;;;23.80;28.00;;;;;;5036213;28;19929;-61
2022/03/13 14:17:30;;;;;;;;;;;23.80;28.10;;;;;;5019742;28;20252;-62
2022/03/13 14:19:56;;;;;;;;;;;23.70;28.00;;;;;;5041296;28;19924;-61